createdAt,value
2023-03-18T00:00:10.384Z,4.00
2023-03-18T00:03:01.905Z,4.00
2023-03-18T00:05:35.252Z,4.00
2023-03-18T00:08:06.788Z,4.00
2023-03-18T00:10:37.607Z,4.00
2023-03-18T00:13:09.318Z,4.00
2023-03-18T00:15:40.032Z,4.00
2023-03-18T00:18:11.252Z,3.90
2023-03-18T00:20:45.557Z,3.90
2023-03-18T00:23:17.230Z,3.90
2023-03-18T00:25:49.924Z,3.90
2023-03-18T00:28:21.400Z,3.90
2023-03-18T00:30:52.392Z,3.90
2023-03-18T00:33:23.575Z,3.90
2023-03-18T00:35:56.809Z,3.90
2023-03-18T00:38:27.959Z,3.90
2023-03-18T00:44:11.880Z,3.90
2023-03-18T00:46:43.892Z,3.90
2023-03-18T00:49:15.644Z,3.80
2023-03-18T00:51:49.387Z,3.80
2023-03-18T00:54:21.471Z,3.80
2023-03-18T00:56:54.252Z,3.80
2023-03-18T00:59:26.377Z,3.80
2023-03-18T01:01:57.288Z,3.80
2023-03-18T01:04:29.605Z,3.80
2023-03-18T01:07:03.110Z,3.80
2023-03-18T01:09:34.775Z,3.70
2023-03-18T01:12:05.853Z,3.70
2023-03-18T01:14:37.117Z,3.70
2023-03-18T01:17:10.013Z,3.70
2023-03-18T01:19:42.654Z,3.70
2023-03-18T01:22:15.884Z,3.60
2023-03-18T01:24:53.286Z,3.60
2023-03-18T01:27:30.809Z,3.60
2023-03-18T01:30:04.479Z,3.60
2023-03-18T01:32:36.259Z,3.50
2023-03-18T01:35:08.077Z,3.50
2023-03-18T01:37:42.357Z,3.50
2023-03-18T01:40:17.976Z,3.50
2023-03-18T01:42:52.917Z,3.50
2023-03-18T01:45:25.918Z,3.50
2023-03-18T01:48:00.423Z,3.50
2023-03-18T01:50:34.123Z,3.50
2023-03-18T01:53:09.895Z,3.50
2023-03-18T01:55:42.901Z,3.50
2023-03-18T01:58:16.221Z,3.50
2023-03-18T02:00:49.049Z,3.50
2023-03-18T02:03:21.263Z,3.40
2023-03-18T02:05:53.202Z,3.40
2023-03-18T02:08:26.578Z,3.40
2023-03-18T02:10:57.654Z,3.40
2023-03-18T02:13:30.041Z,3.40
2023-03-18T02:16:04.906Z,3.40
2023-03-18T02:18:41.987Z,3.30
2023-03-18T02:21:21.127Z,3.40
2023-03-18T02:24:01.824Z,3.30
2023-03-18T02:26:37.335Z,3.30
2023-03-18T02:29:14.990Z,3.30
2023-03-18T02:31:56.592Z,3.30
2023-03-18T02:34:28.544Z,3.20
2023-03-18T02:37:01.176Z,3.20
2023-03-18T02:39:33.160Z,3.20
2023-03-18T02:42:04.413Z,3.20
2023-03-18T02:44:40.934Z,3.20
2023-03-18T02:47:43.890Z,3.20
2023-03-18T02:50:15.487Z,3.20
2023-03-18T02:52:48.009Z,3.20
2023-03-18T02:55:18.935Z,3.10
2023-03-18T02:57:53.268Z,3.10
2023-03-18T03:00:26.803Z,3.10
2023-03-18T03:02:58.199Z,3.10
2023-03-18T03:05:29.414Z,3.10
2023-03-18T03:08:01.730Z,3.10
2023-03-18T03:10:34.736Z,3.10
2023-03-18T03:13:07.704Z,3.10
2023-03-18T03:15:40.962Z,3.10
2023-03-18T03:18:12.517Z,3.10
2023-03-18T03:20:44.274Z,3.10
2023-03-18T03:23:17.814Z,3.00
2023-03-18T03:25:48.303Z,3.10
2023-03-18T03:28:19.586Z,3.00
2023-03-18T03:30:52.833Z,3.00
2023-03-18T03:33:23.771Z,3.10
2023-03-18T03:35:55.520Z,3.10
2023-03-18T03:38:26.958Z,3.00
2023-03-18T03:40:58.810Z,3.10
2023-03-18T03:43:29.911Z,3.10
2023-03-18T03:46:03.826Z,3.10
2023-03-18T03:48:35.158Z,3.10
2023-03-18T03:51:05.950Z,3.10
2023-03-18T03:53:37.792Z,3.20
2023-03-18T03:56:11.786Z,3.20
2023-03-18T03:58:43.250Z,3.20
2023-03-18T04:01:16.886Z,3.20
2023-03-18T04:03:50.227Z,3.20
2023-03-18T04:06:21.464Z,3.10
2023-03-18T04:09:01.632Z,3.20
2023-03-18T04:11:32.954Z,3.10
2023-03-18T04:14:04.078Z,3.10
2023-03-18T04:16:38.443Z,3.00
2023-03-18T04:19:10.516Z,3.00
2023-03-18T04:21:41.051Z,3.00
2023-03-18T04:24:14.551Z,3.00
2023-03-18T04:26:46.791Z,3.00
2023-03-18T04:29:43.644Z,3.00
2023-03-18T04:32:19.498Z,3.00
2023-03-18T04:34:50.624Z,2.90
2023-03-18T04:37:21.512Z,2.90
2023-03-18T04:39:56.437Z,2.90
2023-03-18T04:42:27.911Z,2.80
2023-03-18T04:44:59.035Z,2.80
2023-03-18T04:47:33.010Z,2.80
2023-03-18T04:50:04.816Z,2.80
2023-03-18T04:52:36.411Z,2.80
2023-03-18T04:55:08.038Z,2.80
2023-03-18T04:57:43.238Z,2.80
2023-03-18T05:00:21.630Z,2.70
2023-03-18T05:02:58.810Z,2.70
2023-03-18T05:05:32.005Z,2.70
2023-03-18T05:08:03.475Z,2.70
2023-03-18T05:10:35.412Z,2.70
2023-03-18T05:13:06.641Z,2.70
2023-03-18T05:15:40.746Z,2.70
2023-03-18T05:18:14.409Z,2.80
2023-03-18T05:20:48.437Z,2.80
2023-03-18T05:23:21.405Z,2.80
2023-03-18T05:25:58.860Z,2.80
2023-03-18T05:28:31.808Z,2.90
2023-03-18T05:31:20.626Z,2.90
2023-03-18T05:33:54.632Z,2.90
2023-03-18T05:36:28.024Z,3.00
2023-03-18T05:39:05.555Z,3.00
2023-03-18T05:41:37.124Z,3.10
2023-03-18T05:44:11.899Z,3.20
2023-03-18T05:46:45.083Z,3.20
2023-03-18T05:49:39.274Z,3.30
2023-03-18T05:52:22.384Z,3.40
2023-03-18T05:54:55.989Z,3.50
2023-03-18T05:57:33.903Z,3.60
2023-03-18T06:00:10.081Z,3.70
2023-03-18T06:02:50.405Z,3.70
2023-03-18T06:05:24.645Z,3.90
2023-03-18T06:07:56.975Z,3.90
2023-03-18T06:10:28.164Z,4.00
2023-03-18T06:13:01.090Z,4.00
2023-03-18T06:15:33.769Z,4.10
2023-03-18T06:18:05.105Z,4.10
2023-03-18T06:20:38.422Z,4.20
2023-03-18T06:23:10.417Z,4.20
2023-03-18T06:25:41.485Z,4.30
2023-03-18T06:28:13.465Z,4.30
2023-03-18T06:30:44.962Z,4.40
2023-03-18T06:33:17.023Z,4.40
2023-03-18T06:35:51.612Z,4.40
2023-03-18T06:38:23.943Z,4.50
2023-03-18T06:40:55.930Z,4.50
2023-03-18T06:43:27.614Z,4.60
2023-03-18T06:46:00.603Z,4.60
2023-03-18T06:48:35.245Z,4.70
2023-03-18T06:51:12.377Z,4.80
2023-03-18T06:53:45.743Z,4.80
2023-03-18T06:56:18.120Z,4.90
2023-03-18T06:59:08.410Z,5.00
2023-03-18T07:01:40.392Z,5.00
2023-03-18T07:04:12.263Z,5.10
2023-03-18T07:06:46.512Z,5.10
2023-03-18T07:09:21.883Z,5.10
2023-03-18T07:11:57.081Z,5.30
2023-03-18T07:14:29.129Z,5.30
2023-03-18T07:17:01.146Z,5.40
2023-03-18T07:19:34.236Z,5.40
2023-03-18T07:22:09.436Z,5.50
2023-03-18T07:24:40.941Z,5.60
2023-03-18T07:27:13.804Z,5.70
2023-03-18T07:29:45.177Z,5.70
2023-03-18T07:32:17.241Z,5.80
2023-03-18T07:34:48.939Z,5.90
2023-03-18T07:37:22.444Z,6.00
2023-03-18T07:39:53.571Z,6.10
2023-03-18T07:42:25.030Z,6.10
2023-03-18T07:44:57.242Z,6.20
2023-03-18T07:47:28.155Z,6.40
2023-03-18T07:49:59.808Z,6.40
2023-03-18T07:52:34.573Z,6.50
2023-03-18T07:55:07.046Z,6.60
2023-03-18T07:57:38.603Z,6.60
2023-03-18T08:00:12.773Z,6.70
2023-03-18T08:02:44.061Z,6.80
2023-03-18T08:05:17.296Z,6.80
2023-03-18T08:07:51.981Z,6.90
2023-03-18T08:10:25.757Z,7.00
2023-03-18T08:12:57.096Z,7.00
2023-03-18T08:15:28.481Z,7.10
2023-03-18T08:17:59.131Z,7.20
2023-03-18T08:20:30.649Z,7.30
2023-03-18T08:23:03.841Z,7.30
2023-03-18T08:25:35.340Z,7.40
2023-03-18T08:28:07.784Z,7.40
2023-03-18T08:30:39.011Z,7.50
2023-03-18T08:33:10.384Z,7.60
2023-03-18T08:35:43.019Z,7.60
2023-03-18T08:38:17.362Z,7.70
2023-03-18T08:40:49.714Z,7.80
2023-03-18T08:43:22.452Z,7.90
2023-03-18T08:45:59.502Z,8.00
2023-03-18T08:48:31.638Z,8.00
2023-03-18T08:51:03.123Z,8.10
2023-03-18T08:53:36.939Z,8.20
2023-03-18T08:56:08.726Z,8.20
2023-03-18T08:58:40.281Z,8.30
2023-03-18T09:01:12.115Z,8.30
2023-03-18T09:03:44.986Z,8.40
2023-03-18T09:06:16.113Z,8.40
2023-03-18T09:08:50.627Z,8.40
2023-03-18T09:11:22.175Z,8.40
2023-03-18T09:13:52.836Z,8.50
2023-03-18T09:16:24.732Z,8.50
2023-03-18T09:18:55.550Z,8.60
2023-03-18T09:21:27.355Z,8.60
2023-03-18T09:24:01.608Z,8.70
2023-03-18T09:26:33.881Z,8.70
2023-03-18T09:29:05.488Z,8.70
2023-03-18T09:31:36.480Z,8.80
2023-03-18T09:34:07.375Z,8.80
2023-03-18T09:36:38.600Z,8.90
2023-03-18T09:39:13.686Z,8.90
2023-03-18T09:41:50.396Z,9.00
2023-03-18T09:44:26.392Z,9.00
2023-03-18T09:47:06.132Z,9.10
2023-03-18T09:49:49.097Z,9.20
2023-03-18T09:52:25.213Z,9.20
2023-03-18T09:55:03.178Z,9.30
2023-03-18T09:57:37.462Z,9.30
2023-03-18T10:00:09.889Z,9.40
2023-03-18T10:02:44.649Z,9.40
2023-03-18T10:05:18.579Z,9.40
2023-03-18T10:07:52.050Z,9.50
2023-03-18T10:10:28.980Z,9.50
2023-03-18T10:13:04.641Z,9.50
2023-03-18T10:15:38.324Z,9.60
2023-03-18T10:18:15.571Z,9.60
2023-03-18T10:20:53.846Z,9.70
2023-03-18T10:23:30.304Z,9.80
2023-03-18T10:26:07.381Z,9.80
2023-03-18T10:28:44.768Z,9.80
2023-03-18T10:31:26.404Z,9.90
2023-03-18T10:34:01.077Z,10.00
2023-03-18T10:36:34.904Z,10.00
2023-03-18T10:39:06.248Z,10.00
2023-03-18T10:41:41.542Z,10.00
2023-03-18T10:44:18.835Z,10.10
2023-03-18T10:46:50.801Z,10.10
2023-03-18T10:49:25.584Z,10.10
2023-03-18T10:51:58.801Z,10.10
2023-03-18T10:54:32.985Z,10.10
2023-03-18T10:57:07.085Z,10.20
2023-03-18T10:59:38.730Z,10.20
2023-03-18T11:02:16.405Z,10.20
2023-03-18T11:04:51.016Z,10.30
2023-03-18T11:07:23.977Z,10.30
2023-03-18T11:09:55.812Z,10.30
2023-03-18T11:12:30.620Z,10.40
2023-03-18T11:15:02.730Z,10.30
2023-03-18T11:17:36.173Z,10.30
2023-03-18T11:20:11.766Z,10.40
2023-03-18T11:22:47.988Z,10.40
2023-03-18T11:25:21.051Z,10.40
2023-03-18T11:27:55.915Z,10.40
2023-03-18T11:30:34.365Z,10.50
2023-03-18T11:33:10.744Z,10.50
2023-03-18T11:35:43.776Z,10.50
2023-03-18T11:38:18.802Z,10.50
2023-03-18T11:40:50.249Z,10.60
2023-03-18T11:43:25.733Z,10.60
2023-03-18T11:45:59.900Z,10.70
2023-03-18T11:48:37.004Z,10.60
2023-03-18T11:51:12.542Z,10.70
2023-03-18T11:53:50.304Z,10.70
2023-03-18T11:56:27.459Z,10.70
2023-03-18T11:59:16.035Z,10.70
2023-03-18T12:01:57.136Z,10.80
2023-03-18T12:04:34.177Z,10.80
2023-03-18T12:07:12.215Z,10.80
2023-03-18T12:09:47.799Z,10.80
2023-03-18T12:12:27.723Z,10.80
2023-03-18T12:15:03.421Z,10.80
2023-03-18T12:17:44.621Z,10.90
2023-03-18T12:20:22.660Z,10.90
2023-03-18T12:23:01.775Z,10.80
2023-03-18T12:25:38.911Z,10.80
2023-03-18T12:28:15.154Z,10.90
2023-03-18T12:30:53.888Z,10.80
2023-03-18T12:33:38.015Z,10.80
2023-03-18T12:36:14.237Z,10.80
2023-03-18T12:38:54.900Z,10.90
2023-03-18T12:41:30.565Z,10.90
2023-03-18T12:44:09.659Z,10.90
2023-03-18T12:46:43.404Z,10.90
2023-03-18T12:49:20.582Z,11.00
2023-03-18T12:51:53.402Z,11.00
2023-03-18T12:54:27.335Z,11.00
2023-03-18T12:57:02.469Z,11.00
2023-03-18T12:59:36.136Z,11.00
2023-03-18T13:02:20.620Z,11.00
2023-03-18T13:04:56.954Z,11.00
2023-03-18T13:07:30.245Z,11.10
2023-03-18T13:10:05.440Z,11.00
2023-03-18T13:12:40.855Z,11.10
2023-03-18T13:15:17.904Z,11.10
2023-03-18T13:17:49.536Z,11.10
2023-03-18T13:20:25.700Z,11.10
2023-03-18T13:23:03.834Z,11.10
2023-03-18T13:25:41.335Z,11.10
2023-03-18T13:28:33.207Z,11.10
2023-03-18T13:31:09.803Z,11.10
2023-03-18T13:33:49.801Z,11.10
2023-03-18T13:36:42.789Z,11.10
2023-03-18T13:39:24.699Z,11.10
2023-03-18T13:42:13.267Z,11.10
2023-03-18T13:44:46.412Z,11.10
2023-03-18T13:47:19.812Z,11.10
2023-03-18T13:49:51.288Z,11.20
2023-03-18T13:52:29.403Z,11.10
2023-03-18T13:55:03.973Z,11.10
2023-03-18T13:57:37.755Z,11.10
2023-03-18T14:00:16.761Z,11.10
2023-03-18T14:02:50.137Z,11.20
2023-03-18T14:05:36.319Z,11.20
2023-03-18T14:08:36.292Z,11.20
2023-03-18T14:11:23.305Z,11.20
2023-03-18T14:13:55.181Z,11.20
2023-03-18T14:16:30.127Z,11.20
2023-03-18T14:19:03.803Z,11.20
2023-03-18T14:21:35.883Z,11.20
2023-03-18T14:24:15.552Z,11.20
2023-03-18T14:26:50.824Z,11.10
2023-03-18T14:29:28.146Z,11.10
2023-03-18T14:32:01.864Z,11.10
2023-03-18T14:34:36.405Z,11.10
2023-03-18T14:37:22.363Z,11.10
2023-03-18T14:39:57.158Z,11.00
2023-03-18T14:42:42.574Z,11.00
2023-03-18T14:45:21.491Z,11.00
2023-03-18T14:47:54.855Z,11.00
2023-03-18T14:50:33.429Z,10.90
2023-03-18T14:53:06.897Z,10.90
2023-03-18T14:55:42.256Z,11.00
2023-03-18T14:58:17.756Z,10.90
2023-03-18T15:00:50.354Z,10.90
2023-03-18T15:03:25.364Z,10.90
2023-03-18T15:06:00.972Z,10.90
2023-03-18T15:08:46.924Z,10.90
2023-03-18T15:11:24.827Z,10.80
2023-03-18T15:14:00.548Z,10.80
2023-03-18T15:16:34.207Z,10.80
2023-03-18T15:19:07.215Z,10.80
2023-03-18T15:21:39.773Z,10.70
2023-03-18T15:24:12.212Z,10.70
2023-03-18T15:26:48.230Z,10.70
2023-03-18T15:29:28.541Z,10.70
2023-03-18T15:32:10.686Z,10.60
2023-03-18T15:34:44.270Z,10.60
2023-03-18T15:37:27.304Z,10.60
2023-03-18T15:40:00.227Z,10.60
2023-03-18T15:42:35.069Z,10.50
2023-03-18T15:45:08.814Z,10.50
2023-03-18T15:47:40.966Z,10.50
2023-03-18T15:50:24.679Z,10.40
2023-03-18T15:53:05.172Z,10.40
2023-03-18T15:55:38.085Z,10.30
2023-03-18T15:58:23.169Z,10.30
2023-03-18T16:00:55.963Z,10.30
2023-03-18T16:03:29.353Z,10.30
2023-03-18T16:06:02.063Z,10.20
2023-03-18T16:08:34.119Z,10.10
2023-03-18T16:11:06.449Z,10.10
2023-03-18T16:13:41.145Z,10.10
2023-03-18T16:16:15.030Z,10.00
2023-03-18T16:18:47.527Z,10.00
2023-03-18T16:21:19.207Z,10.00
2023-03-18T16:23:50.969Z,10.00
2023-03-18T16:26:22.621Z,9.90
2023-03-18T16:28:57.264Z,9.90
2023-03-18T16:31:29.021Z,9.80
2023-03-18T16:34:01.012Z,9.80
2023-03-18T16:36:36.668Z,9.70
2023-03-18T16:39:17.486Z,9.70
2023-03-18T16:41:50.293Z,9.60
2023-03-18T16:44:26.843Z,9.60
2023-03-18T16:46:58.798Z,9.60
2023-03-18T16:49:33.867Z,9.60
2023-03-18T16:52:05.037Z,9.50
2023-03-18T16:54:38.066Z,9.50
2023-03-18T16:57:10.337Z,9.50
2023-03-18T16:59:43.742Z,9.40
2023-03-18T17:02:24.286Z,9.40
2023-03-18T17:04:55.184Z,9.40
2023-03-18T17:07:25.651Z,9.40
2023-03-18T17:09:57.059Z,9.40
2023-03-18T17:12:27.761Z,9.30
2023-03-18T17:15:01.791Z,9.30
2023-03-18T17:17:36.170Z,9.30
2023-03-18T17:20:11.490Z,9.30
2023-03-18T17:22:43.434Z,9.20
2023-03-18T17:25:14.333Z,9.20
2023-03-18T17:27:47.771Z,9.20
2023-03-18T17:30:22.520Z,9.20
2023-03-18T17:32:54.472Z,9.20
2023-03-18T17:35:26.832Z,9.20
2023-03-18T17:37:57.589Z,9.10
2023-03-18T17:40:31.916Z,9.10
2023-03-18T17:43:02.888Z,9.10
2023-03-18T17:45:37.289Z,9.10
2023-03-18T17:48:18.106Z,9.10
2023-03-18T17:50:49.694Z,9.10
2023-03-18T17:53:28.759Z,9.10
2023-03-18T17:55:59.947Z,9.00
2023-03-18T17:58:31.579Z,9.00
2023-03-18T18:01:07.570Z,9.00
2023-03-18T18:03:38.982Z,9.00
2023-03-18T18:06:10.547Z,8.90
2023-03-18T18:08:40.970Z,9.00
2023-03-18T18:11:16.065Z,8.90
2023-03-18T18:13:46.548Z,8.90
2023-03-18T18:16:20.374Z,8.90
2023-03-18T18:18:51.079Z,8.90
2023-03-18T18:21:23.386Z,8.90
2023-03-18T18:23:54.189Z,8.90
2023-03-18T18:26:25.244Z,8.90
2023-03-18T18:28:56.593Z,8.90
2023-03-18T18:31:34.401Z,8.80
2023-03-18T18:34:05.524Z,8.80
2023-03-18T18:36:38.095Z,8.80
2023-03-18T18:39:09.718Z,8.80
2023-03-18T18:41:41.746Z,8.80
2023-03-18T18:44:12.817Z,8.80
2023-03-18T18:46:47.295Z,8.80
2023-03-18T18:49:22.801Z,8.70
2023-03-18T18:51:55.061Z,8.70
2023-03-18T18:54:26.454Z,8.70
2023-03-18T18:56:57.933Z,8.60
2023-03-18T18:59:35.202Z,8.70
2023-03-18T19:02:20.781Z,8.70
2023-03-18T19:04:52.645Z,8.60
2023-03-18T19:07:24.941Z,8.60
2023-03-18T19:09:56.883Z,8.60
2023-03-18T19:12:27.960Z,8.60
2023-03-18T19:14:58.757Z,8.60
2023-03-18T19:17:32.314Z,8.60
2023-03-18T19:20:03.593Z,8.50
2023-03-18T19:22:34.363Z,8.50
2023-03-18T19:25:05.214Z,8.50
2023-03-18T19:27:36.378Z,8.50
2023-03-18T19:30:14.996Z,8.50
2023-03-18T19:32:48.469Z,8.50
2023-03-18T19:35:19.789Z,8.50
2023-03-18T19:37:51.358Z,8.50
2023-03-18T19:40:23.962Z,8.40
2023-03-18T19:42:54.954Z,8.50
2023-03-18T19:45:25.745Z,8.50
2023-03-18T19:47:59.912Z,8.40
2023-03-18T19:50:30.379Z,8.40
2023-03-18T19:53:01.632Z,8.40
2023-03-18T19:55:32.658Z,8.40
2023-03-18T19:58:06.123Z,8.40
2023-03-18T20:00:38.698Z,8.40
2023-03-18T20:03:14.994Z,8.40
2023-03-18T20:05:46.280Z,8.40
2023-03-18T20:08:20.109Z,8.40
2023-03-18T20:10:50.851Z,8.40
2023-03-18T20:13:21.894Z,8.40
2023-03-18T20:15:52.513Z,8.30
2023-03-18T20:18:25.911Z,8.30
2023-03-18T20:20:56.790Z,8.30
2023-03-18T20:23:30.350Z,8.30
2023-03-18T20:26:01.715Z,8.30
2023-03-18T20:28:32.810Z,8.30
2023-03-18T20:31:03.349Z,8.30
2023-03-18T20:33:36.773Z,8.30
2023-03-18T20:36:07.743Z,8.30
2023-03-18T20:38:39.888Z,8.20
2023-03-18T20:41:10.837Z,8.20
2023-03-18T20:43:41.628Z,8.20
2023-03-18T20:46:14.575Z,8.20
2023-03-18T20:48:49.592Z,8.20
2023-03-18T20:51:22.979Z,8.20
2023-03-18T20:53:53.995Z,8.20
2023-03-18T20:56:25.186Z,8.10
2023-03-18T20:58:56.256Z,8.10
2023-03-18T21:01:27.887Z,8.10
2023-03-18T21:04:02.585Z,8.10
2023-03-18T21:06:33.626Z,8.10
2023-03-18T21:09:05.048Z,8.10
2023-03-18T21:11:35.694Z,8.00
2023-03-18T21:14:07.018Z,8.00
2023-03-18T21:16:38.577Z,8.00
2023-03-18T21:19:16.088Z,8.00
2023-03-18T21:21:46.632Z,8.00
2023-03-18T21:24:23.151Z,8.00
2023-03-18T21:27:04.254Z,8.00
2023-03-18T21:29:37.766Z,8.00
2023-03-18T21:32:09.263Z,8.00
2023-03-18T21:34:43.548Z,8.00
2023-03-18T21:37:17.454Z,8.00
2023-03-18T21:39:49.502Z,8.00
2023-03-18T21:42:22.591Z,8.00
2023-03-18T21:44:54.613Z,7.90
2023-03-18T21:47:26.506Z,7.90
2023-03-18T21:50:01.025Z,7.90
2023-03-18T21:52:32.836Z,7.90
2023-03-18T21:55:05.489Z,7.90
2023-03-18T21:57:37.354Z,7.90
2023-03-18T22:00:10.328Z,7.90
2023-03-18T22:02:44.031Z,7.90
2023-03-18T22:05:19.385Z,7.90
2023-03-18T22:07:50.811Z,7.90
2023-03-18T22:10:23.623Z,7.80
2023-03-18T22:12:54.342Z,7.80
2023-03-18T22:15:46.296Z,7.80
2023-03-18T22:18:18.487Z,7.80
2023-03-18T22:20:53.471Z,7.80
2023-03-18T22:23:25.222Z,7.80
2023-03-18T22:25:57.184Z,7.80
2023-03-18T22:28:28.411Z,7.80
2023-03-18T22:31:01.951Z,7.70
2023-03-18T22:33:35.148Z,7.70
2023-03-18T22:36:09.197Z,7.70
2023-03-18T22:38:40.383Z,7.70
2023-03-18T22:41:16.790Z,7.70
2023-03-18T22:43:47.963Z,7.70
2023-03-18T22:46:19.718Z,7.70
2023-03-18T22:48:50.945Z,7.70
2023-03-18T22:51:27.397Z,7.70
2023-03-18T22:53:58.769Z,7.60
2023-03-18T22:56:32.510Z,7.60
2023-03-18T22:59:04.881Z,7.60
2023-03-18T23:01:36.032Z,7.60
2023-03-18T23:04:06.966Z,7.60
2023-03-18T23:06:41.851Z,7.60
2023-03-18T23:09:12.485Z,7.60
2023-03-18T23:11:43.441Z,7.60
2023-03-18T23:14:14.820Z,7.50
2023-03-18T23:16:45.882Z,7.60
2023-03-18T23:19:16.482Z,7.60
2023-03-18T23:21:50.098Z,7.50
2023-03-18T23:24:21.670Z,7.50
2023-03-18T23:26:52.593Z,7.50
2023-03-18T23:29:23.117Z,7.50
2023-03-18T23:31:54.085Z,7.50
2023-03-18T23:34:26.012Z,7.40
2023-03-18T23:36:59.545Z,7.50
2023-03-18T23:39:31.426Z,7.40
2023-03-18T23:42:02.571Z,7.40
2023-03-18T23:44:33.305Z,7.40
2023-03-18T23:47:04.226Z,7.40
2023-03-18T23:49:35.406Z,7.40
2023-03-18T23:52:10.217Z,7.40
2023-03-18T23:54:41.691Z,7.30
2023-03-18T23:57:13.700Z,7.30
2023-03-18T23:59:44.207Z,7.30
